Investigator — VLMJ — position and weather

sailwx.info

Track history (hours):
 
Tides and Currents Weather Stations Pressure Air Temp Water Temp Dewpoint Dewpoint Depression Visibility Wind Speed Wind Dir Waves Ship Positions

Investigator

Last reported at 2018-Jun-10 04:20 UTC. Time now 2018-Jul-19 23:04 UTC.
Position S 43°17' E 148°00'.
Warning: this ship's position is 39 days out of date.

Length 93 m; draft 8.2 m.

Type: Other ship. MMSI: 503791000.

Date/timePositionNaut miles runAvg speedWind from/ knotsBaromVisibWave heightAir tempDewpointWater temp
2018-Jun-10 04:20S 43°17' E 148°00'411.9
2018-Jun-10 03:59S 43°17' E 147°54'911.5
2018-Jun-10 03:13S 43°15' E 147°43'211.8
2018-Jun-10 03:01S 43°14' E 147°40'812.1
2018-Jun-10 02:20S 43°08' E 147°31'411.9
2018-Jun-10 02:00S 43°06' E 147°27'  
2018-Jun-07 05:54S 40°46' E 148°18'1211.2
2018-Jun-07 04:49S 40°38' E 148°05'310.8
2018-Jun-07 04:30S 40°37' E 148°01'511.0
2018-Jun-07 04:00S 40°34' E 147°55'611.6
2018-Jun-07 03:30S 40°29' E 147°50'612.1
2018-Jun-07 03:00S 40°25' E 147°45'612.4
2018-Jun-07 02:30S 40°20' E 147°40'612.4
2018-Jun-07 02:00S 40°15' E 147°35'612.4
2018-Jun-07 01:30S 40°10' E 147°30'612.3
2018-Jun-07 01:00S 40°05' E 147°25'612.3
2018-Jun-07 00:30S 40°01' E 147°20'612.3
2018-Jun-06 23:59S 39°55' E 147°15'612.3
2018-Jun-06 23:30S 39°51' E 147°10'612.3
2018-Jun-06 23:00S 39°45' E 147°07'612.3
2018-Jun-06 22:30S 39°40' E 147°03'612.5
2018-Jun-06 22:00S 39°34' E 146°60'612.5
2018-Jun-06 21:30S 39°28' E 146°56'612.5
2018-Jun-06 21:00S 39°23' E 146°53'612.4
2018-Jun-06 20:30S 39°17' E 146°49'3 6.2
2018-Jun-06 20:00S 39°14' E 146°48'2 4.9
2018-Jun-06 19:31S 39°12' E 146°46'4 8.0
2018-Jun-06 19:01S 39°13' E 146°41'4 7.9
2018-Jun-06 18:31S 39°14' E 146°36'3 6.9
2018-Jun-06 18:00S 39°13' E 146°40'4 8.0
2018-Jun-06 17:30S 39°12' E 146°45'1 1.4
2018-Jun-06 17:00S 39°12' E 146°44'4 7.9
2018-Jun-06 16:30S 39°13' E 146°39'2 4.8
2018-Jun-06 16:00S 39°13' E 146°36'4 8.2
2018-Jun-06 15:30S 39°12' E 146°42'4 8.2
2018-Jun-06 15:00S 39°12' E 146°47'4 6.4
2018-Jun-06 14:22S 39°12' E 146°42'3 8.3
2018-Jun-06 14:00S 39°13' E 146°38'1 1.8
2018-Jun-06 13:30S 39°12' E 146°39'5 8.3
2018-Jun-06 12:56S 39°12' E 146°45'  
Track history (hours):
 
Tides and Currents Weather Stations Pressure Air Temp Water Temp Dewpoint Dewpoint Depression Visibility Wind Speed Wind Dir Waves Ship Positions

Investigator

Last reported at 2018-Jun-10 04:20 UTC. Time now 2018-Jul-19 23:04 UTC.
Position S 43°17' E 148°00'.
Warning: this ship's position is 39 days out of date.

Length 93 m; draft 8.2 m.

Type: Other ship. MMSI: 503791000.

Date/timePositionNaut miles runAvg speedWind from/ knotsBaromVisibWave heightAir tempDewpointWater temp
2018-Jun-10 04:20S 43°17' E 148°00'411.9
2018-Jun-10 03:59S 43°17' E 147°54'911.5
2018-Jun-10 03:13S 43°15' E 147°43'211.8
2018-Jun-10 03:01S 43°14' E 147°40'812.1
2018-Jun-10 02:20S 43°08' E 147°31'411.9
2018-Jun-10 02:00S 43°06' E 147°27'  
2018-Jun-07 05:54S 40°46' E 148°18'1211.2
2018-Jun-07 04:49S 40°38' E 148°05'310.8
2018-Jun-07 04:30S 40°37' E 148°01'511.0
2018-Jun-07 04:00S 40°34' E 147°55'611.6
2018-Jun-07 03:30S 40°29' E 147°50'612.1
2018-Jun-07 03:00S 40°25' E 147°45'612.4
2018-Jun-07 02:30S 40°20' E 147°40'612.4
2018-Jun-07 02:00S 40°15' E 147°35'612.4
2018-Jun-07 01:30S 40°10' E 147°30'612.3
2018-Jun-07 01:00S 40°05' E 147°25'612.3
2018-Jun-07 00:30S 40°01' E 147°20'612.3
2018-Jun-06 23:59S 39°55' E 147°15'612.3
2018-Jun-06 23:30S 39°51' E 147°10'612.3
2018-Jun-06 23:00S 39°45' E 147°07'612.3
2018-Jun-06 22:30S 39°40' E 147°03'612.5
2018-Jun-06 22:00S 39°34' E 146°60'612.5
2018-Jun-06 21:30S 39°28' E 146°56'612.5
2018-Jun-06 21:00S 39°23' E 146°53'612.4
2018-Jun-06 20:30S 39°17' E 146°49'3 6.2
2018-Jun-06 20:00S 39°14' E 146°48'2 4.9
2018-Jun-06 19:31S 39°12' E 146°46'4 8.0
2018-Jun-06 19:01S 39°13' E 146°41'4 7.9
2018-Jun-06 18:31S 39°14' E 146°36'3 6.9
2018-Jun-06 18:00S 39°13' E 146°40'4 8.0
2018-Jun-06 17:30S 39°12' E 146°45'1 1.4
2018-Jun-06 17:00S 39°12' E 146°44'4 7.9
2018-Jun-06 16:30S 39°13' E 146°39'2 4.8
2018-Jun-06 16:00S 39°13' E 146°36'4 8.2
2018-Jun-06 15:30S 39°12' E 146°42'4 8.2
2018-Jun-06 15:00S 39°12' E 146°47'4 6.4
2018-Jun-06 14:22S 39°12' E 146°42'3 8.3
2018-Jun-06 14:00S 39°13' E 146°38'1 1.8
2018-Jun-06 13:30S 39°12' E 146°39'5 8.3
2018-Jun-06 12:56S 39°12' E 146°45'  

Dump ship's entire track history